Time;durP1;ratioP1;P1;durP2;ratioP2;P2;SDS_P1;SDS_P2;PMS_P1;PMS_P2;Temp;Humidity;BMP_temperature;BMP_pressure;BME280_temperature;BME280_humidity;BME280_pressure;Samples;Min_cycle;Max_cycle;Signal;HPM_P1;HPM_P2
2020/12/09 00:00:51;;;;;;;106.85;48.83;;;4.40;99.90;;;;;;5014665;28;20030;-84
2020/12/09 00:03:17;;;;;;;109.15;48.63;;;4.40;99.90;;;;;;5013681;28;20045;-83
2020/12/09 00:05:44;;;;;;;103.80;47.30;;;4.40;99.90;;;;;;5026230;28;20025;-83
2020/12/09 00:08:10;;;;;;;97.28;43.92;;;4.40;99.90;;;;;;5034270;28;20100;-84
2020/12/09 00:10:36;;;;;;;93.63;44.90;;;4.40;99.90;;;;;;5018829;28;20037;-83
2020/12/09 00:13:01;;;;;;;94.82;46.05;;;4.40;99.90;;;;;;5029859;28;20540;-84
2020/12/09 00:15:27;;;;;;;101.97;48.22;;;4.40;99.90;;;;;;5022426;28;20026;-82
2020/12/09 00:17:52;;;;;;;97.03;48.13;;;4.40;99.90;;;;;;5033008;28;20029;-83
2020/12/09 00:20:18;;;;;;;98.30;48.90;;;4.40;99.90;;;;;;5034080;28;20105;-83
2020/12/09 00:22:43;;;;;;;97.50;46.08;;;4.40;99.90;;;;;;5032888;28;20485;-83
2020/12/09 00:25:09;;;;;;;98.65;46.47;;;4.40;99.90;;;;;;5020735;28;20037;-83
2020/12/09 00:27:35;;;;;;;90.90;44.30;;;4.40;99.90;;;;;;5029477;28;20490;-83
2020/12/09 00:30:02;;;;;;;81.55;42.65;;;4.40;99.90;;;;;;5029452;28;20037;-83
2020/12/09 00:32:31;;;;;;;104.90;49.13;;;4.40;99.90;;;;;;5029518;28;20032;-83
2020/12/09 00:34:56;;;;;;;87.28;42.85;;;4.40;99.90;;;;;;5020768;28;20035;-83
2020/12/09 00:37:22;;;;;;;91.90;44.58;;;4.40;99.90;;;;;;5033793;28;20478;-83
2020/12/09 00:39:48;;;;;;;91.75;47.53;;;4.40;99.90;;;;;;5033401;28;20033;-83
2020/12/09 00:42:13;;;;;;;82.85;42.90;;;4.40;99.90;;;;;;5032501;28;20124;-84
2020/12/09 00:44:39;;;;;;;90.95;44.45;;;4.40;99.90;;;;;;5031456;28;20092;-84
2020/12/09 00:47:04;;;;;;;79.28;40.67;;;4.40;99.90;;;;;;5029166;28;20030;-83
2020/12/09 00:49:31;;;;;;;84.88;42.65;;;4.40;99.90;;;;;;5013848;28;20032;-83
2020/12/09 00:51:57;;;;;;;86.22;45.13;;;4.40;99.90;;;;;;5013849;28;20040;-84
2020/12/09 00:54:23;;;;;;;92.15;45.85;;;4.40;99.90;;;;;;5017395;28;20067;-84
2020/12/09 00:56:48;;;;;;;87.07;44.30;;;4.40;99.90;;;;;;5033506;28;20667;-83
2020/12/09 00:59:14;;;;;;;80.20;41.92;;;4.40;99.90;;;;;;5033438;28;20029;-83
2020/12/09 01:01:39;;;;;;;91.38;44.55;;;4.40;99.90;;;;;;5033489;28;20079;-83
2020/12/09 01:04:06;;;;;;;88.13;45.05;;;4.40;99.90;;;;;;5031692;28;20477;-83
2020/12/09 01:06:33;;;;;;;87.93;46.00;;;4.40;99.90;;;;;;5011948;28;20498;-83
2020/12/09 01:09:01;;;;;;;78.75;43.35;;;4.40;99.90;;;;;;5013532;28;20071;-84
2020/12/09 01:11:26;;;;;;;85.97;46.85;;;4.40;99.90;;;;;;5013579;28;20014;-83
2020/12/09 01:13:52;;;;;;;85.70;43.85;;;4.50;99.90;;;;;;5028270;28;20021;-83
2020/12/09 01:16:17;;;;;;;90.07;45.50;;;4.40;99.90;;;;;;5028306;28;20026;-84
2020/12/09 01:18:43;;;;;;;92.05;46.75;;;4.50;99.90;;;;;;5031814;28;20025;-83
2020/12/09 01:21:09;;;;;;;92.97;44.83;;;4.50;99.90;;;;;;5032889;28;20037;-83
2020/12/09 01:23:35;;;;;;;86.38;43.40;;;4.50;99.90;;;;;;5033012;28;20032;-82
2020/12/09 01:26:00;;;;;;;90.13;45.70;;;4.50;99.90;;;;;;5013999;28;20033;-84
2020/12/09 01:28:26;;;;;;;81.60;44.95;;;4.50;99.90;;;;;;5028461;28;20532;-83
2020/12/09 01:30:51;;;;;;;87.70;44.92;;;4.50;99.90;;;;;;5028410;28;20053;-83
2020/12/09 01:33:17;;;;;;;91.57;45.88;;;4.50;99.90;;;;;;5013103;28;20501;-83
2020/12/09 01:35:42;;;;;;;91.63;47.30;;;4.50;99.90;;;;;;5025733;28;20123;-83
2020/12/09 01:38:08;;;;;;;86.15;44.55;;;4.50;99.90;;;;;;5032752;28;20030;-83
2020/12/09 01:40:34;;;;;;;90.57;46.92;;;4.50;99.90;;;;;;5031037;28;20022;-83
2020/12/09 01:42:59;;;;;;;93.82;46.97;;;4.50;99.90;;;;;;5031389;28;20489;-83
2020/12/09 01:45:25;;;;;;;88.28;44.30;;;4.50;99.90;;;;;;5022980;28;20120;-83
2020/12/09 01:47:51;;;;;;;91.63;44.83;;;4.50;99.90;;;;;;5012830;28;20589;-83
2020/12/09 01:50:16;;;;;;;98.55;46.70;;;4.50;99.90;;;;;;5012655;28;20026;-83
2020/12/09 01:52:42;;;;;;;99.35;45.97;;;4.50;99.90;;;;;;5027985;28;20053;-83
2020/12/09 01:55:09;;;;;;;101.05;45.88;;;4.50;99.90;;;;;;5023512;28;20067;-83
2020/12/09 01:57:35;;;;;;;83.60;45.25;;;4.50;99.90;;;;;;5031064;28;20021;-83
2020/12/09 02:00:00;;;;;;;92.35;45.20;;;4.50;99.90;;;;;;5031112;28;20401;-83
2020/12/09 02:02:26;;;;;;;97.68;48.70;;;4.50;99.90;;;;;;5032310;28;20105;-83
2020/12/09 02:04:53;;;;;;;90.25;46.08;;;4.50;99.90;;;;;;5040880;28;20120;-83
2020/12/09 02:07:21;;;;;;;101.82;50.00;;;4.50;99.90;;;;;;5012343;28;20029;-84
2020/12/09 02:09:56;;;;;;;95.20;46.80;;;4.50;99.90;;;;;;5035883;28;20390;-83
2020/12/09 02:12:22;;;;;;;99.38;47.78;;;4.50;99.90;;;;;;5030969;28;20033;-83
2020/12/09 02:14:48;;;;;;;103.40;50.15;;;4.50;99.90;;;;;;5028923;28;20033;-83
2020/12/09 02:17:13;;;;;;;93.25;49.75;;;4.50;99.90;;;;;;5027433;28;20116;-83
2020/12/09 02:19:39;;;;;;;105.72;49.65;;;4.50;99.90;;;;;;5027342;28;20025;-83
2020/12/09 02:22:12;;;;;;;98.28;51.05;;;4.50;99.90;;;;;;5011044;28;20102;-83
2020/12/09 02:24:38;;;;;;;113.75;53.63;;;4.50;99.90;;;;;;5018106;28;20036;-83
2020/12/09 02:27:04;;;;;;;113.65;55.35;;;4.60;99.90;;;;;;5031901;28;20499;-83
2020/12/09 02:29:30;;;;;;;123.32;59.13;;;4.50;99.90;;;;;;5030691;28;20129;-83
2020/12/09 02:31:55;;;;;;;121.40;59.22;;;4.50;99.90;;;;;;5031858;28;20037;-84
2020/12/09 02:34:21;;;;;;;124.15;61.42;;;4.50;99.90;;;;;;5029238;28;20030;-82
2020/12/09 02:36:47;;;;;;;128.35;59.70;;;4.50;99.90;;;;;;5010801;28;20026;-83
2020/12/09 02:39:12;;;;;;;131.27;62.20;;;4.50;99.90;;;;;;5027181;28;20113;-82
2020/12/09 02:41:38;;;;;;;152.02;63.53;;;4.50;99.90;;;;;;5012037;28;20026;-83
2020/12/09 02:44:03;;;;;;;131.52;62.15;;;4.40;99.90;;;;;;5011867;28;20061;-83
2020/12/09 02:46:29;;;;;;;136.55;59.65;;;4.40;99.90;;;;;;5028496;28;20025;-83
2020/12/09 02:48:57;;;;;;;132.18;63.25;;;4.40;99.90;;;;;;5030358;28;20079;-83
2020/12/09 02:51:23;;;;;;;130.20;63.25;;;4.40;99.90;;;;;;5031759;28;20508;-83
2020/12/09 02:53:49;;;;;;;127.15;59.70;;;4.40;99.90;;;;;;5029549;28;20055;-82
2020/12/09 02:56:17;;;;;;;131.45;59.80;;;4.40;99.90;;;;;;5011839;28;20022;-83
2020/12/09 02:58:42;;;;;;;128.75;58.60;;;4.40;99.90;;;;;;5012773;28;20022;-83
2020/12/09 03:01:08;;;;;;;125.05;57.67;;;4.40;99.90;;;;;;5011763;28;20052;-83
2020/12/09 03:03:33;;;;;;;118.80;58.00;;;4.40;99.90;;;;;;5010792;28;20113;-83
2020/12/09 03:05:59;;;;;;;131.32;60.28;;;4.40;99.90;;;;;;5041452;28;20065;-83
2020/12/09 03:08:24;;;;;;;149.60;63.97;;;4.40;99.90;;;;;;5031566;28;20022;-83
2020/12/09 03:10:50;;;;;;;126.60;58.15;;;4.40;99.90;;;;;;5030237;28;20029;-83
2020/12/09 03:13:15;;;;;;;127.50;61.95;;;4.30;99.90;;;;;;5031479;28;20025;-83
2020/12/09 03:15:41;;;;;;;142.05;61.63;;;4.30;99.90;;;;;;5020720;28;20088;-83
2020/12/09 03:18:07;;;;;;;136.63;63.30;;;4.30;99.90;;;;;;5026966;28;20486;-83
2020/12/09 03:20:32;;;;;;;142.32;61.60;;;4.30;99.90;;;;;;5011664;28;20113;-83
2020/12/09 03:22:58;;;;;;;144.73;62.17;;;4.30;99.90;;;;;;5011634;28;20029;-83
2020/12/09 03:25:23;;;;;;;133.23;60.63;;;4.20;99.90;;;;;;5039725;28;20516;-83
2020/12/09 03:27:49;;;;;;;142.63;62.47;;;4.20;99.90;;;;;;5031117;28;20026;-83
2020/12/09 03:30:15;;;;;;;135.90;64.65;;;4.20;99.90;;;;;;5031241;28;20478;-84
2020/12/09 03:32:40;;;;;;;150.48;64.10;;;4.30;99.90;;;;;;5030038;28;20029;-83
2020/12/09 03:35:06;;;;;;;138.25;61.05;;;4.20;99.90;;;;;;5023040;28;20363;-83
2020/12/09 03:37:32;;;;;;;149.00;65.20;;;4.20;99.90;;;;;;5015240;28;20605;-83
2020/12/09 03:39:57;;;;;;;122.35;55.10;;;4.20;99.90;;;;;;5030410;28;20121;-82
2020/12/09 03:42:23;;;;;;;140.23;58.30;;;4.20;99.90;;;;;;5015175;28;20030;-84
2020/12/09 03:44:48;;;;;;;136.20;58.55;;;4.20;99.90;;;;;;5016241;28;20034;-83
2020/12/09 03:47:14;;;;;;;135.20;57.30;;;4.20;99.90;;;;;;5033397;28;20542;-84
2020/12/09 03:49:39;;;;;;;136.63;57.80;;;4.20;99.90;;;;;;5034787;28;20554;-83
2020/12/09 03:52:05;;;;;;;124.82;54.72;;;4.20;99.90;;;;;;5033475;28;20079;-82
2020/12/09 03:54:30;;;;;;;126.35;56.95;;;4.20;99.90;;;;;;5028214;28;20037;-83
2020/12/09 03:56:56;;;;;;;127.78;56.75;;;4.20;99.90;;;;;;5030119;28;20486;-84
2020/12/09 03:59:21;;;;;;;149.15;58.03;;;4.20;99.90;;;;;;5014761;28;20068;-81
2020/12/09 04:01:47;;;;;;;136.10;57.97;;;4.10;99.90;;;;;;5014754;28;20025;-83
2020/12/09 04:04:13;;;;;;;123.63;55.88;;;4.10;99.90;;;;;;5013850;28;20247;-82
2020/12/09 04:06:38;;;;;;;130.23;55.70;;;4.10;99.90;;;;;;5033053;28;20030;-83
2020/12/09 04:09:04;;;;;;;129.88;58.22;;;4.10;99.90;;;;;;5033856;28;20196;-83
2020/12/09 04:11:30;;;;;;;144.40;59.78;;;4.10;99.90;;;;;;5034470;28;20021;-81
2020/12/09 04:13:56;;;;;;;139.40;59.70;;;4.10;99.90;;;;;;5034173;28;20041;-82
2020/12/09 04:16:22;;;;;;;130.30;57.42;;;4.10;99.90;;;;;;5018434;28;20048;-83
2020/12/09 04:18:47;;;;;;;133.48;57.33;;;4.10;99.90;;;;;;5014460;28;20026;-83
2020/12/09 04:21:13;;;;;;;131.65;57.83;;;4.10;99.90;;;;;;5014425;28;20124;-83
2020/12/09 04:23:38;;;;;;;137.88;60.13;;;4.20;99.90;;;;;;5013113;28;20018;-83
2020/12/09 04:26:04;;;;;;;120.68;55.15;;;4.10;99.90;;;;;;5032802;28;20037;-83
2020/12/09 04:28:29;;;;;;;124.63;56.70;;;4.30;99.90;;;;;;5032927;28;20441;-82
2020/12/09 04:30:55;;;;;;;140.80;59.22;;;4.20;99.90;;;;;;5033908;28;20029;-82
2020/12/09 04:33:30;;;;;;;125.40;58.33;;;4.20;99.90;;;;;;5032774;28;20060;-83
2020/12/09 04:35:57;;;;;;;122.90;56.63;;;4.10;99.90;;;;;;5018648;28;20041;-82
2020/12/09 04:38:23;;;;;;;125.03;54.85;;;4.10;99.90;;;;;;5014185;28;20433;-81
2020/12/09 04:40:49;;;;;;;124.05;52.40;;;4.10;99.90;;;;;;5014005;28;20036;-83
2020/12/09 04:43:15;;;;;;;116.63;51.15;;;4.00;99.90;;;;;;5014001;28;20022;-81
2020/12/09 04:45:41;;;;;;;125.40;54.40;;;4.00;99.90;;;;;;5023340;28;20104;-81
2020/12/09 04:48:10;;;;;;;113.65;52.67;;;4.00;99.90;;;;;;5048179;28;20485;-83
2020/12/09 04:51:14;;;;;;;127.68;55.53;;;4.00;99.90;;;;;;5032460;28;20112;-82
2020/12/09 04:53:43;;;;;;;139.90;56.30;;;4.00;99.90;;;;;;5032250;28;20022;-82
2020/12/09 04:56:09;;;;;;;129.35;55.15;;;4.00;99.90;;;;;;5012663;28;20112;-82
2020/12/09 04:58:51;;;;;;;142.80;60.25;;;4.00;99.90;;;;;;5013670;28;20370;-83
2020/12/09 05:01:17;;;;;;;147.27;56.53;;;4.00;99.90;;;;;;5012469;28;20129;-82
2020/12/09 05:03:45;;;;;;;137.90;57.95;;;4.00;99.90;;;;;;5013465;28;20581;-82
2020/12/09 05:06:14;;;;;;;142.73;58.42;;;4.00;99.90;;;;;;5029970;28;20021;-83
2020/12/09 05:08:48;;;;;;;148.82;59.15;;;4.00;99.90;;;;;;5033368;28;20113;-83
2020/12/09 05:11:14;;;;;;;134.77;55.70;;;4.10;99.90;;;;;;5033287;28;20112;-83
2020/12/09 05:13:42;;;;;;;149.77;59.97;;;4.10;99.90;;;;;;5031796;28;20021;-83
2020/12/09 05:16:11;;;;;;;131.85;57.85;;;4.10;99.90;;;;;;5034812;28;20076;-82
2020/12/09 05:18:42;;;;;;;150.18;58.83;;;4.10;99.90;;;;;;5013241;28;20030;-83
2020/12/09 05:21:12;;;;;;;141.60;60.17;;;4.10;99.90;;;;;;5013349;28;20034;-82
2020/12/09 05:23:57;;;;;;;140.98;60.00;;;4.00;99.90;;;;;;5028671;28;20084;-83
2020/12/09 05:26:27;;;;;;;135.38;57.60;;;4.10;99.90;;;;;;5033031;28;20056;-83
2020/12/09 05:29:09;;;;;;;152.45;61.85;;;4.10;99.90;;;;;;5032875;28;20036;-82
2020/12/09 05:31:36;;;;;;;138.85;57.45;;;4.20;99.90;;;;;;5048245;28;20021;-82
2020/12/09 05:34:22;;;;;;;141.05;59.35;;;4.20;99.90;;;;;;5032628;28;20021;-83
2020/12/09 05:37:09;;;;;;;150.55;61.35;;;4.20;99.90;;;;;;5011735;28;20452;-82
2020/12/09 05:39:47;;;;;;;129.15;57.63;;;4.20;99.90;;;;;;5027863;28;20026;-84
2020/12/09 05:42:15;;;;;;;144.43;57.70;;;4.20;99.90;;;;;;5013203;28;20022;-83
2020/12/09 05:44:42;;;;;;;142.77;59.10;;;4.20;99.90;;;;;;5029255;28;20029;-84
2020/12/09 05:47:08;;;;;;;143.75;58.90;;;4.20;99.90;;;;;;5031271;28;20021;-83
2020/12/09 05:49:36;;;;;;;148.60;61.53;;;4.10;99.90;;;;;;5032578;28;20029;-84
2020/12/09 05:52:08;;;;;;;144.80;63.35;;;4.20;99.90;;;;;;5029431;28;20026;-82
2020/12/09 05:54:35;;;;;;;147.90;60.75;;;4.20;99.90;;;;;;5030714;28;20567;-83
2020/12/09 05:57:06;;;;;;;132.55;55.95;;;4.20;99.90;;;;;;5047702;28;20033;-83
2020/12/09 05:59:39;;;;;;;139.25;59.78;;;4.20;99.90;;;;;;5047520;28;20026;-82
2020/12/09 06:02:18;;;;;;;146.70;59.23;;;4.20;99.90;;;;;;5025486;28;20025;-82
2020/12/09 06:04:49;;;;;;;132.27;57.08;;;4.20;99.90;;;;;;5012318;28;20045;-83
2020/12/09 06:07:16;;;;;;;143.57;60.65;;;4.20;99.90;;;;;;5011111;28;20034;-82
2020/12/09 06:10:04;;;;;;;139.95;58.58;;;4.30;99.90;;;;;;5018345;28;20025;-82
2020/12/09 06:12:48;;;;;;;141.35;58.95;;;4.20;99.90;;;;;;5030916;28;20417;-83
2020/12/09 06:15:15;;;;;;;138.50;57.55;;;4.20;99.90;;;;;;5030689;28;20034;-82
2020/12/09 06:17:40;;;;;;;131.23;57.80;;;4.20;99.90;;;;;;5030894;28;20030;-82
2020/12/09 06:20:06;;;;;;;140.18;57.35;;;4.20;99.90;;;;;;5031533;28;20512;-83
2020/12/09 06:22:32;;;;;;;136.07;57.65;;;4.20;99.90;;;;;;5031979;28;20110;-84
2020/12/09 06:25:06;;;;;;;132.18;57.22;;;4.20;99.90;;;;;;5031703;28;20171;-83
2020/12/09 06:27:33;;;;;;;134.07;58.13;;;4.20;99.90;;;;;;5030724;28;20075;-83
2020/12/09 06:30:00;;;;;;;137.55;59.80;;;4.20;99.90;;;;;;5027799;28;20390;-82
2020/12/09 06:32:25;;;;;;;140.43;60.45;;;4.20;99.90;;;;;;5012226;28;20053;-83
2020/12/09 06:35:07;;;;;;;127.38;58.25;;;4.10;99.90;;;;;;5010759;28;20567;-83
2020/12/09 06:37:32;;;;;;;134.68;58.20;;;4.20;99.90;;;;;;5027374;28;20032;-83
2020/12/09 06:40:13;;;;;;;132.90;59.67;;;4.20;99.90;;;;;;5021350;28;20022;-84
2020/12/09 06:42:39;;;;;;;132.23;60.05;;;4.20;99.90;;;;;;5030546;28;20029;-82
2020/12/09 06:45:05;;;;;;;141.23;62.10;;;4.20;99.90;;;;;;5031620;28;20036;-83
2020/12/09 06:47:31;;;;;;;141.43;60.88;;;4.20;99.90;;;;;;5031719;28;20021;-83
2020/12/09 06:50:00;;;;;;;148.50;60.50;;;4.20;99.90;;;;;;5025094;28;20037;-82
2020/12/09 06:52:32;;;;;;;139.10;61.55;;;4.20;99.90;;;;;;5011952;28;20393;-83
2020/12/09 06:54:59;;;;;;;161.18;63.13;;;4.30;99.90;;;;;;5011746;28;20029;-83
2020/12/09 06:57:37;;;;;;;157.43;63.72;;;4.20;99.90;;;;;;5027092;28;20057;-83
2020/12/09 07:00:35;;;;;;;154.60;60.10;;;4.20;99.90;;;;;;5016147;28;20088;-83
2020/12/09 07:03:25;;;;;;;153.15;62.53;;;4.20;99.90;;;;;;5030262;28;20038;-83
2020/12/09 07:05:51;;;;;;;155.98;59.25;;;4.20;99.90;;;;;;5046731;28;20032;-83
2020/12/09 07:08:16;;;;;;;168.68;63.40;;;4.20;99.90;;;;;;5030345;28;20104;-84
2020/12/09 07:10:42;;;;;;;163.15;63.17;;;4.20;99.90;;;;;;5032341;28;20490;-83
2020/12/09 07:13:13;;;;;;;176.57;63.63;;;4.20;99.90;;;;;;5015746;28;20029;-84
2020/12/09 07:15:45;;;;;;;165.80;60.45;;;4.20;99.90;;;;;;5030817;28;20033;-83
2020/12/09 07:18:11;;;;;;;167.40;66.25;;;4.20;99.90;;;;;;5015774;28;20030;-83
2020/12/09 07:20:37;;;;;;;156.18;62.05;;;4.20;99.90;;;;;;5027138;28;20112;-83
2020/12/09 07:23:04;;;;;;;157.23;61.90;;;4.10;99.90;;;;;;5034084;28;20064;-84
2020/12/09 07:25:30;;;;;;;168.95;63.17;;;4.10;99.90;;;;;;5021037;28;20026;-84
2020/12/09 07:27:56;;;;;;;156.73;61.92;;;4.10;99.90;;;;;;5015393;28;20021;-83
2020/12/09 07:30:23;;;;;;;173.40;63.70;;;4.10;99.90;;;;;;5030650;28;20375;-83
2020/12/09 07:32:50;;;;;;;173.25;65.05;;;4.20;99.90;;;;;;5014125;28;20072;-84
2020/12/09 07:35:17;;;;;;;160.05;59.30;;;4.10;99.90;;;;;;5023817;28;20037;-83
2020/12/09 07:37:47;;;;;;;174.95;64.53;;;4.10;99.90;;;;;;5034768;28;20025;-83
2020/12/09 07:40:32;;;;;;;158.40;62.33;;;4.20;99.90;;;;;;5049899;28;20037;-83
2020/12/09 07:43:18;;;;;;;166.88;65.65;;;4.20;99.90;;;;;;5067736;23;20049;-79
2020/12/09 07:45:45;;;;;;;148.43;59.40;;;4.10;99.90;;;;;;5070536;28;20036;-78
2020/12/09 07:48:12;;;;;;;149.10;60.35;;;4.20;99.90;;;;;;5074768;28;20039;-78
2020/12/09 07:50:40;;;;;;;149.45;61.40;;;4.30;99.90;;;;;;5074714;28;20050;-78
2020/12/09 07:53:11;;;;;;;150.57;60.00;;;4.20;99.90;;;;;;5074660;28;20039;-78
2020/12/09 07:55:37;;;;;;;155.80;62.05;;;4.20;99.90;;;;;;5057543;28;20641;-78
2020/12/09 07:58:11;;;;;;;155.35;60.33;;;4.20;99.90;;;;;;5054579;28;20037;-79
2020/12/09 08:00:42;;;;;;;152.32;63.35;;;4.20;99.90;;;;;;5052942;28;20032;-78
2020/12/09 08:03:19;;;;;;;156.48;61.55;;;4.20;99.90;;;;;;5053947;28;20052;-78
2020/12/09 08:05:45;;;;;;;156.43;61.50;;;4.20;99.90;;;;;;5053750;28;20095;-78
2020/12/09 08:08:15;;;;;;;157.75;61.30;;;4.20;99.90;;;;;;5054252;28;20481;-78
2020/12/09 08:10:43;;;;;;;167.48;64.97;;;4.20;99.90;;;;;;5053963;28;20507;-78
2020/12/09 08:13:11;;;;;;;178.32;63.63;;;4.20;99.90;;;;;;5052855;28;20060;-78
2020/12/09 08:15:41;;;;;;;157.13;63.08;;;4.20;99.90;;;;;;5053744;28;20040;-78
2020/12/09 08:18:08;;;;;;;155.57;61.17;;;4.20;99.90;;;;;;5052907;28;20025;-78
2020/12/09 08:20:54;;;;;;;162.73;64.30;;;4.20;99.90;;;;;;5052715;28;20035;-78
2020/12/09 08:23:20;;;;;;;153.02;59.83;;;4.30;99.90;;;;;;5051875;28;20021;-78
2020/12/09 08:25:53;;;;;;;173.32;65.90;;;4.30;99.90;;;;;;5051976;28;20029;-78
2020/12/09 08:28:26;;;;;;;152.63;60.13;;;4.30;99.90;;;;;;5053070;28;20389;-78
2020/12/09 08:30:54;;;;;;;134.23;58.22;;;4.40;99.90;;;;;;5052510;28;20033;-78
2020/12/09 08:33:23;;;;;;;163.25;64.05;;;4.40;99.90;;;;;;5053399;28;20021;-78
2020/12/09 08:35:58;;;;;;;142.35;58.13;;;4.40;99.90;;;;;;5053480;28;20449;-78
2020/12/09 08:38:29;;;;;;;150.02;58.95;;;4.40;99.90;;;;;;5053850;28;20098;-78
2020/12/09 08:41:00;;;;;;;133.50;56.92;;;4.40;99.90;;;;;;5052102;28;20040;-78
2020/12/09 08:43:30;;;;;;;131.02;55.60;;;4.40;99.90;;;;;;5053396;28;20090;-78
2020/12/09 08:45:57;;;;;;;134.77;59.78;;;4.40;99.90;;;;;;5053410;28;20025;-79
2020/12/09 08:48:23;;;;;;;146.75;63.10;;;4.40;99.90;;;;;;5053630;28;20029;-80
2020/12/09 08:50:50;;;;;;;143.68;62.95;;;4.50;99.90;;;;;;5053583;28;20435;-79
2020/12/09 08:53:17;;;;;;;138.57;59.22;;;4.50;99.90;;;;;;5051513;28;20452;-79
2020/12/09 08:55:43;;;;;;;134.32;57.35;;;4.50;99.90;;;;;;5051795;28;20049;-79
2020/12/09 08:58:12;;;;;;;129.18;59.15;;;4.50;99.90;;;;;;5053384;28;20060;-79
2020/12/09 09:00:39;;;;;;;124.53;54.05;;;4.50;99.90;;;;;;5051870;28;20370;-79
2020/12/09 09:03:20;;;;;;;123.93;55.40;;;4.60;99.90;;;;;;5052960;28;20025;-79
2020/12/09 09:05:51;;;;;;;121.65;53.40;;;4.60;99.90;;;;;;5053101;28;20017;-79
2020/12/09 09:08:17;;;;;;;118.20;55.15;;;4.60;99.90;;;;;;5051980;28;20116;-79
2020/12/09 09:10:43;;;;;;;121.80;56.15;;;4.60;99.90;;;;;;5053064;28;20113;-79
2020/12/09 09:13:10;;;;;;;113.25;52.13;;;4.70;99.90;;;;;;5052932;28;20825;-80
2020/12/09 09:15:36;;;;;;;121.50;54.65;;;4.70;99.90;;;;;;5052769;28;20083;-80
2020/12/09 09:18:06;;;;;;;113.50;53.67;;;4.70;99.90;;;;;;5051805;28;20435;-79
2020/12/09 09:20:33;;;;;;;115.60;55.28;;;4.70;99.90;;;;;;5052791;28;20051;-79
2020/12/09 09:22:59;;;;;;;107.32;50.40;;;4.70;99.90;;;;;;5052711;28;20103;-79
2020/12/09 09:25:25;;;;;;;109.63;50.42;;;4.80;99.90;;;;;;5051262;28;20021;-79
2020/12/09 09:27:51;;;;;;;112.38;52.42;;;4.80;99.90;;;;;;5052903;28;20049;-79
2020/12/09 09:30:19;;;;;;;103.93;50.75;;;4.80;99.90;;;;;;5052566;28;20120;-79
2020/12/09 09:32:44;;;;;;;107.05;49.97;;;4.70;99.90;;;;;;5048952;28;20032;-78
2020/12/09 09:35:10;;;;;;;104.03;48.28;;;4.80;99.90;;;;;;5052137;28;20029;-79
2020/12/09 09:37:36;;;;;;;100.82;48.13;;;4.80;99.90;;;;;;5052678;28;20070;-79
2020/12/09 09:40:02;;;;;;;100.55;51.28;;;4.90;99.90;;;;;;5052429;28;20102;-78
2020/12/09 09:42:28;;;;;;;96.63;47.38;;;5.00;99.90;;;;;;5051046;28;20178;-79
2020/12/09 09:44:53;;;;;;;104.25;51.17;;;5.00;99.90;;;;;;5052371;28;20517;-79
2020/12/09 09:47:19;;;;;;;102.07;49.60;;;5.00;99.90;;;;;;5052309;28;20060;-79
2020/12/09 09:49:45;;;;;;;103.72;52.70;;;5.10;99.90;;;;;;5052421;28;20017;-79
2020/12/09 09:52:10;;;;;;;103.18;49.67;;;5.20;99.90;;;;;;5051053;28;20029;-79
2020/12/09 09:54:36;;;;;;;97.28;49.35;;;5.20;99.90;;;;;;5051911;28;20033;-79
2020/12/09 09:57:03;;;;;;;99.53;48.80;;;5.20;99.90;;;;;;5052291;28;20029;-79
2020/12/09 09:59:29;;;;;;;117.03;53.70;;;5.20;99.90;;;;;;5050822;28;20025;-79
2020/12/09 10:01:55;;;;;;;99.55;48.88;;;5.20;99.90;;;;;;5050940;28;20071;-78
2020/12/09 10:04:21;;;;;;;105.93;51.15;;;5.20;99.90;;;;;;5050767;28;20056;-79
2020/12/09 10:06:47;;;;;;;94.82;49.00;;;5.20;99.90;;;;;;5051991;28;20064;-78
2020/12/09 10:09:13;;;;;;;104.95;48.70;;;5.20;99.90;;;;;;5051935;28;20017;-80
2020/12/09 10:11:40;;;;;;;114.05;53.55;;;5.30;99.90;;;;;;5051807;28;20033;-78
2020/12/09 10:14:07;;;;;;;101.82;50.03;;;5.30;99.90;;;;;;5051897;28;20029;-78
2020/12/09 10:16:33;;;;;;;103.38;51.42;;;5.30;99.90;;;;;;5050710;28;20485;-78
2020/12/09 10:19:02;;;;;;;108.57;51.10;;;5.40;99.90;;;;;;5051884;28;20039;-78
2020/12/09 10:21:30;;;;;;;101.53;50.78;;;5.40;99.90;;;;;;5051719;28;20025;-78
2020/12/09 10:23:57;;;;;;;110.40;49.80;;;5.40;99.90;;;;;;5051713;28;20104;-78
2020/12/09 10:26:36;;;;;;;105.15;47.53;;;5.40;99.90;;;;;;5051823;28;20465;-78
2020/12/09 10:29:07;;;;;;;90.88;47.65;;;5.50;99.90;;;;;;5050674;28;20025;-78
2020/12/09 10:31:34;;;;;;;99.93;49.47;;;5.50;99.90;;;;;;5051774;28;20040;-79
2020/12/09 10:34:00;;;;;;;103.80;47.80;;;5.50;99.90;;;;;;5051420;28;20040;-78
2020/12/09 10:36:26;;;;;;;111.45;50.10;;;5.60;99.90;;;;;;5050297;28;20035;-79
2020/12/09 10:38:52;;;;;;;104.20;48.25;;;5.50;99.90;;;;;;5051658;28;20021;-78
2020/12/09 10:41:18;;;;;;;113.00;49.15;;;5.50;99.90;;;;;;5051231;28;20035;-79
2020/12/09 10:43:43;;;;;;;103.70;49.65;;;5.50;99.90;;;;;;5050123;28;20032;-78
2020/12/09 10:46:09;;;;;;;110.18;50.63;;;5.50;99.90;;;;;;5050853;28;20036;-78
2020/12/09 10:48:35;;;;;;;115.32;53.15;;;5.50;99.90;;;;;;5051550;28;20095;-79
2020/12/09 10:51:03;;;;;;;117.38;52.28;;;5.50;99.90;;;;;;5050165;28;20029;-78
2020/12/09 10:53:28;;;;;;;114.13;50.97;;;5.50;99.90;;;;;;5051526;28;20070;-78
2020/12/09 10:55:59;;;;;;;118.32;50.67;;;5.50;99.90;;;;;;5049997;28;20033;-78
2020/12/09 10:58:27;;;;;;;118.22;52.17;;;5.50;99.90;;;;;;5050309;28;20028;-78
2020/12/09 11:00:53;;;;;;;109.55;50.78;;;5.60;99.90;;;;;;5051466;28;20029;-79
2020/12/09 11:03:19;;;;;;;105.72;47.78;;;5.60;99.90;;;;;;5050881;28;20068;-79
2020/12/09 11:05:45;;;;;;;113.20;47.58;;;5.60;99.90;;;;;;5051176;28;20104;-79
2020/12/09 11:08:12;;;;;;;113.72;48.30;;;5.60;99.90;;;;;;5051341;28;20040;-79
2020/12/09 11:10:37;;;;;;;106.53;49.65;;;5.50;99.90;;;;;;5050068;28;20033;-79
2020/12/09 11:13:03;;;;;;;114.40;50.33;;;5.60;99.90;;;;;;5050056;28;20108;-79
2020/12/09 11:15:28;;;;;;;116.03;49.58;;;5.50;99.90;;;;;;5051191;28;20036;-79
2020/12/09 11:17:54;;;;;;;104.07;46.67;;;5.50;99.90;;;;;;5051227;28;20021;-78
2020/12/09 11:20:19;;;;;;;105.63;46.90;;;5.50;99.90;;;;;;5049902;28;20048;-78
2020/12/09 11:22:45;;;;;;;102.63;45.95;;;5.50;99.90;;;;;;5051170;28;20580;-78
2020/12/09 11:25:10;;;;;;;114.60;47.97;;;5.50;99.90;;;;;;5051146;28;20021;-79
2020/12/09 11:27:36;;;;;;;100.28;45.00;;;5.50;99.90;;;;;;5051173;28;20017;-79
2020/12/09 11:30:03;;;;;;;111.47;46.30;;;5.60;99.90;;;;;;5051266;28;20102;-78
2020/12/09 11:32:33;;;;;;;103.20;45.80;;;5.60;99.90;;;;;;5049844;28;20025;-79
2020/12/09 11:34:59;;;;;;;108.85;47.22;;;5.60;99.90;;;;;;5050760;28;20436;-78
2020/12/09 11:37:25;;;;;;;107.18;46.63;;;5.60;99.90;;;;;;5051202;28;20032;-79
2020/12/09 11:39:50;;;;;;;111.70;46.50;;;5.70;99.90;;;;;;5051077;28;20032;-78
2020/12/09 11:42:16;;;;;;;110.22;45.50;;;5.70;99.90;;;;;;5050917;28;20075;-78
2020/12/09 11:44:42;;;;;;;114.85;47.85;;;5.70;99.90;;;;;;5050851;28;20109;-78
2020/12/09 11:47:07;;;;;;;113.07;48.95;;;5.70;99.90;;;;;;5051053;28;20025;-78
2020/12/09 11:49:33;;;;;;;122.80;48.72;;;5.70;99.90;;;;;;5050903;28;20025;-79
2020/12/09 11:51:58;;;;;;;118.60;50.38;;;5.70;99.90;;;;;;5050759;28;20021;-79
2020/12/09 11:54:24;;;;;;;117.07;46.58;;;5.70;99.90;;;;;;5050870;28;20079;-78
2020/12/09 11:56:50;;;;;;;118.65;46.53;;;5.70;99.90;;;;;;5052406;28;20100;-78
2020/12/09 11:59:15;;;;;;;127.38;51.38;;;5.60;99.90;;;;;;5054592;28;20024;-79
2020/12/09 12:01:41;;;;;;;134.88;52.05;;;5.70;99.90;;;;;;5052493;28;20017;-78
2020/12/09 12:04:06;;;;;;;125.20;50.70;;;5.60;99.90;;;;;;5054238;28;20124;-79
2020/12/09 12:06:32;;;;;;;134.23;51.72;;;5.60;99.90;;;;;;5054467;28;20025;-79
2020/12/09 12:08:58;;;;;;;143.07;52.92;;;5.60;99.90;;;;;;5054362;28;20103;-79
2020/12/09 12:11:24;;;;;;;149.90;55.42;;;5.60;99.90;;;;;;5054034;28;20021;-79
2020/12/09 12:13:50;;;;;;;146.48;53.45;;;5.50;99.90;;;;;;5054083;28;20033;-79
2020/12/09 12:16:19;;;;;;;144.52;54.03;;;5.50;99.90;;;;;;5054127;28;20024;-78
2020/12/09 12:18:45;;;;;;;134.88;52.40;;;5.50;99.90;;;;;;5054055;28;20025;-78
2020/12/09 12:21:15;;;;;;;149.05;58.05;;;5.50;99.90;;;;;;5056915;28;20814;-79
2020/12/09 12:23:41;;;;;;;146.13;54.50;;;5.50;99.90;;;;;;5054061;28;20017;-78
2020/12/09 12:26:07;;;;;;;127.38;50.85;;;5.50;99.90;;;;;;5053924;28;20079;-79
2020/12/09 12:28:33;;;;;;;131.05;49.15;;;5.50;99.90;;;;;;5053923;28;20031;-79
2020/12/09 12:30:59;;;;;;;152.73;53.70;;;5.40;99.90;;;;;;5053736;28;20071;-79